createdAt,value
2019-03-27T00:00:45.223Z,2.20
2019-03-27T00:03:15.698Z,2.63
2019-03-27T00:05:46.188Z,2.03
2019-03-27T00:08:16.743Z,2.40
2019-03-27T00:10:47.232Z,1.97
2019-03-27T00:13:17.701Z,1.87
2019-03-27T00:15:48.268Z,3.60
2019-03-27T00:18:18.828Z,3.13
2019-03-27T00:20:49.420Z,3.73
2019-03-27T00:23:19.979Z,2.90
2019-03-27T00:25:50.563Z,2.10
2019-03-27T00:28:21.392Z,8.43
2019-03-27T00:30:52.028Z,8.13
2019-03-27T00:33:22.581Z,3.70
2019-03-27T00:35:53.073Z,6.33
2019-03-27T00:38:23.469Z,3.80
2019-03-27T00:40:53.875Z,3.03
2019-03-27T00:43:24.352Z,3.23
2019-03-27T00:45:54.846Z,2.00
2019-03-27T00:48:25.324Z,1.60
2019-03-27T00:50:55.820Z,1.63
2019-03-27T00:53:26.275Z,1.60
2019-03-27T00:55:56.777Z,6.70
2019-03-27T00:58:27.316Z,2.40
2019-03-27T01:01:06.971Z,2.70
2019-03-27T01:03:37.520Z,2.30
2019-03-27T01:06:08.095Z,2.23
2019-03-27T01:08:38.652Z,2.20
2019-03-27T01:11:09.232Z,2.27
2019-03-27T01:13:39.789Z,3.03
2019-03-27T01:16:10.360Z,4.53
2019-03-27T01:18:40.829Z,4.20
2019-03-27T01:21:12.333Z,1.93
2019-03-27T01:23:42.787Z,2.13
2019-03-27T01:26:13.371Z,6.97
2019-03-27T01:28:43.836Z,5.57
2019-03-27T01:31:14.390Z,6.77
2019-03-27T01:33:44.957Z,3.00
2019-03-27T01:36:15.500Z,1.77
2019-03-27T01:38:46.002Z,3.27
2019-03-27T01:41:16.472Z,2.07
2019-03-27T01:43:46.889Z,2.20
2019-03-27T01:46:17.515Z,1.60
2019-03-27T01:48:48.083Z,1.63
2019-03-27T01:51:18.564Z,1.80
2019-03-27T01:53:48.976Z,4.50
2019-03-27T01:56:19.457Z,3.67
2019-03-27T01:58:49.943Z,7.83
2019-03-27T02:01:20.489Z,5.73
2019-03-27T02:03:51.072Z,2.87
2019-03-27T02:06:21.644Z,2.30
2019-03-27T02:08:52.138Z,6.63
2019-03-27T02:11:22.692Z,3.53
2019-03-27T02:13:53.201Z,5.73
2019-03-27T02:16:23.756Z,2.70
2019-03-27T02:18:54.257Z,6.10
2019-03-27T02:21:24.816Z,6.00
2019-03-27T02:23:55.385Z,3.23
2019-03-27T02:26:25.924Z,8.30
2019-03-27T02:28:56.418Z,2.83
2019-03-27T02:31:26.966Z,2.97
2019-03-27T02:33:57.456Z,2.30
2019-03-27T02:36:27.997Z,4.33
2019-03-27T02:38:58.581Z,3.07
2019-03-27T02:41:28.976Z,2.53
2019-03-27T02:43:59.455Z,2.17
2019-03-27T02:46:29.944Z,1.77
2019-03-27T02:49:00.678Z,3.33
2019-03-27T02:51:31.160Z,3.27
2019-03-27T02:54:01.644Z,5.60
2019-03-27T02:56:32.189Z,2.63
2019-03-27T02:59:02.752Z,3.77
2019-03-27T03:01:33.296Z,7.10
2019-03-27T03:04:03.894Z,2.67
2019-03-27T03:06:34.498Z,3.60
2019-03-27T03:09:06.445Z,7.90
2019-03-27T03:11:37.066Z,5.00
2019-03-27T03:14:07.546Z,3.80
2019-03-27T03:16:42.643Z,6.67
2019-03-27T03:19:10.460Z,4.03
2019-03-27T03:21:41.025Z,4.97
2019-03-27T03:24:11.512Z,10.10
2019-03-27T03:26:42.082Z,9.77
2019-03-27T03:29:12.497Z,6.63
2019-03-27T03:31:43.051Z,4.13
2019-03-27T03:34:13.629Z,11.60
2019-03-27T03:36:44.237Z,7.40
2019-03-27T03:39:14.733Z,8.57
2019-03-27T03:41:45.329Z,3.40
2019-03-27T03:44:15.906Z,4.13
2019-03-27T03:46:58.891Z,6.10
2019-03-27T03:49:18.553Z,8.73
2019-03-27T03:51:49.126Z,9.73
2019-03-27T03:54:20.088Z,6.77
2019-03-27T03:56:53.715Z,3.83
2019-03-27T03:59:25.777Z,4.50
2019-03-27T04:01:56.322Z,3.60
2019-03-27T04:04:28.490Z,3.70
2019-03-27T04:06:59.039Z,3.23
2019-03-27T04:09:29.521Z,3.33
2019-03-27T04:11:59.922Z,3.50
2019-03-27T04:14:30.335Z,4.20
2019-03-27T04:17:16.169Z,2.40
2019-03-27T04:19:33.065Z,4.37
2019-03-27T04:22:03.622Z,3.67
2019-03-27T04:24:34.104Z,2.57
2019-03-27T04:27:04.582Z,2.87
2019-03-27T04:29:34.994Z,2.50
2019-03-27T04:32:05.616Z,4.53
2019-03-27T04:34:36.097Z,3.60
2019-03-27T04:37:06.570Z,2.70
2019-03-27T04:39:37.211Z,2.77
2019-03-27T04:42:07.761Z,2.63
2019-03-27T04:44:38.249Z,2.60
2019-03-27T04:47:08.790Z,4.57
2019-03-27T04:49:39.208Z,2.60
2019-03-27T04:52:09.779Z,3.20
2019-03-27T04:54:40.440Z,4.57
2019-03-27T04:57:10.988Z,4.07
2019-03-27T04:59:41.460Z,3.77
2019-03-27T05:02:12.093Z,4.17
2019-03-27T05:04:42.832Z,6.33
2019-03-27T05:07:13.810Z,4.43
2019-03-27T05:09:44.391Z,2.90
2019-03-27T05:12:14.867Z,2.33
2019-03-27T05:14:45.270Z,3.47
2019-03-27T05:17:15.671Z,2.63
2019-03-27T05:19:46.136Z,2.27
2019-03-27T05:22:16.733Z,3.17
2019-03-27T05:24:47.119Z,4.70
2019-03-27T05:27:17.618Z,4.80
2019-03-27T05:29:48.182Z,9.10
2019-03-27T05:32:18.690Z,6.70
2019-03-27T05:34:50.245Z,4.57
2019-03-27T05:37:20.801Z,7.33
2019-03-27T05:39:51.275Z,3.50
2019-03-27T05:42:21.893Z,3.90
2019-03-27T05:44:52.365Z,6.57
2019-03-27T05:47:22.938Z,4.63
2019-03-27T05:49:53.397Z,7.53
2019-03-27T05:52:23.816Z,4.63
2019-03-27T05:54:54.214Z,9.37
2019-03-27T05:57:24.808Z,5.30
2019-03-27T05:59:55.356Z,5.07
2019-03-27T06:02:26.588Z,11.50
2019-03-27T06:04:57.067Z,5.53
2019-03-27T06:07:27.476Z,5.87
2019-03-27T06:09:58.051Z,7.97
2019-03-27T06:12:28.589Z,7.80
2019-03-27T06:14:59.016Z,12.40
2019-03-27T06:17:29.528Z,21.37
2019-03-27T06:20:00.149Z,15.07
2019-03-27T06:22:30.773Z,7.47
2019-03-27T06:25:01.324Z,12.73
2019-03-27T06:27:31.775Z,9.40
2019-03-27T06:30:02.355Z,11.47
2019-03-27T06:32:32.768Z,12.97
2019-03-27T06:35:03.320Z,9.27
2019-03-27T06:37:33.824Z,6.90
2019-03-27T06:40:04.453Z,9.70
2019-03-27T06:42:34.944Z,5.80
2019-03-27T06:45:06.639Z,8.90
2019-03-27T06:47:37.428Z,10.30
2019-03-27T06:50:08.319Z,10.07
2019-03-27T06:52:38.820Z,7.50
2019-03-27T06:55:09.860Z,7.73
2019-03-27T06:57:40.699Z,7.20
2019-03-27T07:00:13.354Z,9.13
2019-03-27T07:02:44.006Z,9.07
2019-03-27T07:05:14.709Z,9.77
2019-03-27T07:07:45.363Z,8.40
2019-03-27T07:10:15.966Z,15.60
2019-03-27T07:12:46.544Z,11.90
2019-03-27T07:15:17.044Z,12.30
2019-03-27T07:17:47.511Z,14.70
2019-03-27T07:20:21.219Z,12.67
2019-03-27T07:22:51.945Z,10.70
2019-03-27T07:25:22.536Z,17.03
2019-03-27T07:27:53.068Z,12.63
2019-03-27T07:30:37.031Z,11.90
2019-03-27T07:33:07.634Z,35.63
2019-03-27T07:35:38.185Z,15.00
2019-03-27T07:38:08.784Z,16.50
2019-03-27T07:40:39.354Z,16.90
2019-03-27T07:43:09.843Z,16.03
2019-03-27T07:45:40.363Z,16.07
2019-03-27T07:48:10.861Z,17.83
2019-03-27T07:50:41.380Z,14.67
2019-03-27T07:53:11.900Z,13.60
2019-03-27T07:55:42.700Z,14.37
2019-03-27T07:58:13.201Z,16.53
2019-03-27T08:00:43.879Z,15.23
2019-03-27T08:03:14.445Z,17.57
2019-03-27T08:05:45.022Z,11.47
2019-03-27T08:08:15.500Z,14.87
2019-03-27T08:10:46.100Z,19.67
2019-03-27T08:13:16.648Z,23.67
2019-03-27T08:15:47.220Z,20.73
2019-03-27T08:18:17.776Z,24.33
2019-03-27T08:20:48.287Z,23.60
2019-03-27T08:23:18.769Z,21.97
2019-03-27T08:25:49.628Z,18.00
2019-03-27T08:28:20.105Z,18.43
2019-03-27T08:30:50.675Z,13.27
2019-03-27T08:33:21.079Z,13.17
2019-03-27T08:35:52.750Z,17.43
2019-03-27T08:38:23.215Z,13.50
2019-03-27T08:40:53.785Z,9.57
2019-03-27T08:43:25.711Z,17.30
2019-03-27T08:45:56.427Z,16.37
2019-03-27T08:48:26.985Z,12.97
2019-03-27T08:50:57.551Z,16.00
2019-03-27T08:53:28.100Z,18.90
2019-03-27T08:55:58.689Z,18.93
2019-03-27T08:58:29.185Z,18.13
2019-03-27T09:01:00.129Z,15.60
2019-03-27T09:03:30.679Z,12.50
2019-03-27T09:06:01.243Z,13.93
2019-03-27T09:08:31.807Z,14.27
2019-03-27T09:11:04.669Z,11.77
2019-03-27T09:13:34.625Z,11.27
2019-03-27T09:16:05.399Z,12.33
2019-03-27T09:18:35.940Z,16.17
2019-03-27T09:21:06.585Z,10.63
2019-03-27T09:23:37.148Z,10.13
2019-03-27T09:26:07.645Z,10.17
2019-03-27T09:28:38.041Z,10.40
2019-03-27T09:31:08.620Z,11.07
2019-03-27T09:33:39.176Z,6.83
2019-03-27T09:36:09.737Z,8.30
2019-03-27T09:38:40.409Z,8.20
2019-03-27T09:41:11.015Z,10.07
2019-03-27T09:43:41.491Z,8.07
2019-03-27T09:46:12.085Z,11.87
2019-03-27T09:48:42.724Z,8.70
2019-03-27T09:51:13.306Z,10.07
2019-03-27T09:53:43.691Z,8.33
2019-03-27T09:56:19.452Z,6.97
2019-03-27T09:58:46.423Z,7.07
2019-03-27T10:01:16.934Z,11.13
2019-03-27T10:03:47.410Z,9.77
2019-03-27T10:06:18.000Z,9.93
2019-03-27T10:08:48.641Z,10.17
2019-03-27T10:11:19.208Z,8.03
2019-03-27T10:13:49.603Z,5.43
2019-03-27T10:16:20.167Z,9.53
2019-03-27T10:18:50.730Z,6.37
2019-03-27T10:21:21.357Z,8.43
2019-03-27T10:23:51.837Z,7.47
2019-03-27T10:26:22.365Z,9.07
2019-03-27T10:28:52.997Z,8.70
2019-03-27T10:31:23.593Z,7.27
2019-03-27T10:33:54.144Z,8.80
2019-03-27T10:36:24.661Z,7.57
2019-03-27T10:38:55.692Z,7.83
2019-03-27T10:41:26.305Z,8.63
2019-03-27T10:43:56.912Z,8.67
2019-03-27T10:46:27.416Z,11.73
2019-03-27T10:48:58.075Z,9.07
2019-03-27T10:51:28.676Z,10.83
2019-03-27T10:53:59.170Z,8.70
2019-03-27T10:56:29.748Z,10.23
2019-03-27T10:59:01.173Z,11.07
2019-03-27T11:01:31.663Z,9.53
2019-03-27T11:04:02.229Z,7.57
2019-03-27T11:06:32.697Z,9.30
2019-03-27T11:09:04.283Z,9.27
2019-03-27T11:11:34.801Z,9.53
2019-03-27T11:14:05.760Z,6.33
2019-03-27T11:16:36.328Z,9.50
2019-03-27T11:19:06.905Z,10.57
2019-03-27T11:21:37.385Z,7.50
2019-03-27T11:24:07.873Z,7.70
2019-03-27T11:26:38.269Z,6.80
2019-03-27T11:29:08.688Z,9.00
2019-03-27T11:31:39.160Z,10.20
2019-03-27T11:34:09.650Z,10.03
2019-03-27T11:36:40.105Z,7.30
2019-03-27T11:39:10.842Z,6.80
2019-03-27T11:41:41.372Z,10.03
2019-03-27T11:44:12.831Z,9.17
2019-03-27T11:46:43.428Z,9.27
2019-03-27T11:49:14.001Z,9.97
2019-03-27T11:51:44.531Z,9.27
2019-03-27T11:54:15.273Z,11.20
2019-03-27T11:56:45.731Z,6.83
2019-03-27T11:59:16.232Z,11.63
2019-03-27T12:01:46.795Z,14.20
2019-03-27T12:04:17.284Z,12.97
2019-03-27T12:06:47.761Z,10.23
2019-03-27T12:09:18.281Z,10.33
2019-03-27T12:11:48.756Z,11.40
2019-03-27T12:14:19.184Z,10.03
2019-03-27T12:16:50.151Z,12.30
2019-03-27T12:19:20.836Z,10.43
2019-03-27T12:21:54.566Z,10.17
2019-03-27T12:24:23.589Z,9.33
2019-03-27T12:26:54.060Z,10.53
2019-03-27T12:29:24.562Z,9.83
2019-03-27T12:31:55.272Z,11.83
2019-03-27T12:34:25.692Z,7.00
2019-03-27T12:36:56.104Z,12.30
2019-03-27T12:39:26.737Z,8.90
2019-03-27T12:41:57.180Z,9.03
2019-03-27T12:44:27.753Z,8.20
2019-03-27T12:46:58.328Z,8.83
2019-03-27T12:49:28.906Z,8.97
2019-03-27T12:51:59.458Z,9.70
2019-03-27T12:54:30.044Z,8.63
2019-03-27T12:57:00.679Z,5.43
2019-03-27T12:59:31.263Z,6.43
2019-03-27T13:02:01.801Z,5.80
2019-03-27T13:04:32.304Z,5.40
2019-03-27T13:07:02.781Z,8.77
2019-03-27T13:09:33.338Z,6.97
2019-03-27T13:12:03.819Z,10.43
2019-03-27T13:14:35.264Z,6.40
2019-03-27T13:17:05.812Z,6.20
2019-03-27T13:19:36.230Z,6.00
2019-03-27T13:22:06.783Z,7.90
2019-03-27T13:24:37.278Z,5.63
2019-03-27T13:27:07.760Z,7.20
2019-03-27T13:29:38.252Z,6.47
2019-03-27T13:32:08.720Z,6.33
2019-03-27T13:34:39.218Z,9.13
2019-03-27T13:37:10.205Z,5.40
2019-03-27T13:39:40.815Z,8.60
2019-03-27T13:42:11.573Z,6.97
2019-03-27T13:44:43.221Z,4.70
2019-03-27T13:47:15.947Z,6.40
2019-03-27T13:49:46.493Z,6.93
2019-03-27T13:52:17.035Z,9.43
2019-03-27T13:54:47.552Z,5.73
2019-03-27T13:57:18.052Z,6.20
2019-03-27T13:59:48.629Z,7.90
2019-03-27T14:02:19.192Z,10.03
2019-03-27T14:04:49.769Z,6.57
2019-03-27T14:07:20.333Z,6.10
2019-03-27T14:09:50.823Z,7.93
2019-03-27T14:12:21.230Z,8.07
2019-03-27T14:14:51.801Z,9.87
2019-03-27T14:17:22.204Z,7.90
2019-03-27T14:19:52.783Z,9.47
2019-03-27T14:22:23.426Z,6.10
2019-03-27T14:24:53.980Z,7.43
2019-03-27T14:27:24.484Z,4.80
2019-03-27T14:29:54.886Z,5.07
2019-03-27T14:32:25.399Z,6.77
2019-03-27T14:34:55.997Z,5.33
2019-03-27T14:37:26.573Z,5.87
2019-03-27T14:39:57.151Z,3.47
2019-03-27T14:42:27.779Z,6.80
2019-03-27T14:44:58.334Z,5.93
2019-03-27T14:47:28.847Z,7.83
2019-03-27T14:49:59.400Z,3.40
2019-03-27T14:52:29.818Z,5.07
2019-03-27T14:55:02.975Z,5.97
2019-03-27T14:57:32.643Z,5.17
2019-03-27T15:00:03.356Z,5.50
2019-03-27T15:02:33.784Z,8.03
2019-03-27T15:05:04.404Z,4.33
2019-03-27T15:07:34.905Z,5.33
2019-03-27T15:10:06.151Z,6.67
2019-03-27T15:12:39.407Z,9.20
2019-03-27T15:15:11.595Z,4.50
2019-03-27T15:17:43.381Z,3.20
2019-03-27T15:20:17.306Z,4.93
2019-03-27T15:22:49.317Z,3.97
2019-03-27T15:25:20.175Z,6.20
2019-03-27T15:27:54.202Z,5.90
2019-03-27T15:30:29.571Z,4.80
2019-03-27T15:33:00.189Z,4.07
2019-03-27T15:35:30.741Z,5.97
2019-03-27T15:38:01.568Z,7.87
2019-03-27T15:40:41.274Z,7.63
2019-03-27T15:43:12.434Z,7.83
2019-03-27T15:45:43.961Z,8.50
2019-03-27T15:48:15.722Z,6.70
2019-03-27T15:50:56.886Z,4.63
2019-03-27T15:53:18.745Z,8.50
2019-03-27T15:55:49.503Z,7.80
2019-03-27T15:58:20.199Z,5.07
2019-03-27T16:00:51.046Z,4.60
2019-03-27T16:03:21.640Z,5.20
2019-03-27T16:05:52.394Z,5.43
2019-03-27T16:08:22.882Z,5.30
2019-03-27T16:10:54.702Z,4.63
2019-03-27T16:13:25.230Z,4.57
2019-03-27T16:15:55.966Z,7.37
2019-03-27T16:18:26.456Z,7.73
2019-03-27T16:20:56.941Z,7.20
2019-03-27T16:23:27.516Z,7.10
2019-03-27T16:25:58.165Z,7.10
2019-03-27T16:28:33.372Z,5.57
2019-03-27T16:31:04.818Z,5.97
2019-03-27T16:33:36.767Z,5.23
2019-03-27T16:36:08.370Z,5.57
2019-03-27T16:38:39.880Z,5.27
2019-03-27T16:41:12.986Z,4.33
2019-03-27T16:43:44.523Z,7.17
2019-03-27T16:46:16.099Z,6.00
2019-03-27T16:48:47.644Z,7.47
2019-03-27T16:51:21.075Z,6.47
2019-03-27T16:53:51.672Z,6.07
2019-03-27T16:56:22.257Z,3.80
2019-03-27T16:58:52.827Z,3.00
2019-03-27T17:01:23.384Z,2.60
2019-03-27T17:03:53.884Z,3.47
2019-03-27T17:06:26.679Z,3.30
2019-03-27T17:08:58.067Z,6.30
2019-03-27T17:11:28.535Z,8.60
2019-03-27T17:13:59.038Z,3.30
2019-03-27T17:16:29.580Z,3.50
2019-03-27T17:19:00.524Z,3.67
2019-03-27T17:21:30.996Z,4.57
2019-03-27T17:24:01.601Z,2.20
2019-03-27T17:26:32.085Z,3.20
2019-03-27T17:29:02.825Z,3.20
2019-03-27T17:31:33.295Z,7.67
2019-03-27T17:34:04.112Z,3.40
2019-03-27T17:36:34.588Z,3.13
2019-03-27T17:39:08.058Z,3.93
2019-03-27T17:41:40.016Z,5.23
2019-03-27T17:44:10.520Z,7.20
2019-03-27T17:46:41.094Z,5.10
2019-03-27T17:49:11.845Z,4.40
2019-03-27T17:51:42.937Z,4.87
2019-03-27T17:54:20.513Z,2.47
2019-03-27T17:56:45.608Z,5.13
2019-03-27T17:59:16.276Z,6.90
2019-03-27T18:01:46.752Z,4.33
2019-03-27T18:04:17.255Z,3.73
2019-03-27T18:06:47.848Z,2.50
2019-03-27T18:09:18.529Z,5.03
2019-03-27T18:11:49.149Z,4.87
2019-03-27T18:14:19.648Z,6.80
2019-03-27T18:16:50.257Z,2.83
2019-03-27T18:19:22.090Z,3.53
2019-03-27T18:22:06.737Z,2.77
2019-03-27T18:24:26.557Z,4.27
2019-03-27T18:26:57.152Z,4.30
2019-03-27T18:29:27.654Z,2.83
2019-03-27T18:31:58.181Z,3.83
2019-03-27T18:34:28.685Z,2.67
2019-03-27T18:36:59.231Z,4.13
2019-03-27T18:39:29.904Z,3.20
2019-03-27T18:42:00.467Z,2.93
2019-03-27T18:44:30.882Z,5.30
2019-03-27T18:47:01.477Z,2.83
2019-03-27T18:49:32.059Z,6.83
2019-03-27T18:52:02.613Z,3.50
2019-03-27T18:54:33.120Z,4.13
2019-03-27T18:57:03.585Z,3.57
2019-03-27T18:59:34.089Z,3.27
2019-03-27T19:02:04.652Z,5.30
2019-03-27T19:04:35.258Z,3.07
2019-03-27T19:07:05.825Z,3.10
2019-03-27T19:09:36.400Z,3.20
2019-03-27T19:12:07.034Z,2.30
2019-03-27T19:14:37.541Z,4.97
2019-03-27T19:17:09.618Z,4.70
2019-03-27T19:19:40.196Z,3.47
2019-03-27T19:22:10.698Z,2.53
2019-03-27T19:24:41.295Z,2.50
2019-03-27T19:27:12.773Z,2.63
2019-03-27T19:29:45.022Z,3.57
2019-03-27T19:32:15.725Z,3.53
2019-03-27T19:34:46.312Z,2.23
2019-03-27T19:37:23.175Z,1.60
2019-03-27T19:39:54.203Z,4.63
2019-03-27T19:42:24.820Z,2.23
2019-03-27T19:44:55.480Z,4.10
2019-03-27T19:47:26.327Z,1.90
2019-03-27T19:49:56.812Z,2.63
2019-03-27T19:52:27.318Z,2.03
2019-03-27T19:54:57.797Z,2.10
2019-03-27T19:57:28.331Z,4.67
2019-03-27T19:59:58.803Z,3.77
2019-03-27T20:02:29.405Z,5.17
2019-03-27T20:05:00.483Z,6.07
2019-03-27T20:07:36.227Z,3.50
2019-03-27T20:10:03.732Z,1.93
2019-03-27T20:12:35.389Z,4.87
2019-03-27T20:15:12.471Z,2.20
2019-03-27T20:17:38.999Z,2.00
2019-03-27T20:20:10.083Z,2.07
2019-03-27T20:22:40.671Z,2.00
2019-03-27T20:25:14.660Z,1.97
2019-03-27T20:27:43.940Z,2.30
2019-03-27T20:30:16.790Z,2.03
2019-03-27T20:32:47.580Z,2.07
2019-03-27T20:35:18.175Z,3.63
2019-03-27T20:37:48.736Z,1.73
2019-03-27T20:40:19.973Z,2.27
2019-03-27T20:42:52.279Z,5.10
2019-03-27T20:45:22.697Z,1.83
2019-03-27T20:47:53.209Z,4.97
2019-03-27T20:50:26.794Z,1.97
2019-03-27T20:52:56.032Z,3.37
2019-03-27T20:55:30.442Z,4.30
2019-03-27T20:57:58.756Z,7.97
2019-03-27T21:00:29.297Z,7.23
2019-03-27T21:02:59.888Z,5.07
2019-03-27T21:05:34.736Z,7.13
2019-03-27T21:08:04.564Z,7.20
2019-03-27T21:10:35.151Z,5.23
2019-03-27T21:13:05.723Z,8.07
2019-03-27T21:15:38.661Z,4.87
2019-03-27T21:18:08.480Z,7.03
2019-03-27T21:20:39.197Z,5.60
2019-03-27T21:23:10.549Z,4.73
2019-03-27T21:25:41.923Z,9.17
2019-03-27T21:28:12.521Z,7.50
2019-03-27T21:30:42.999Z,4.47
2019-03-27T21:33:13.619Z,2.90
2019-03-27T21:35:44.168Z,2.30
2019-03-27T21:38:14.740Z,4.53
2019-03-27T21:40:45.804Z,6.73
2019-03-27T21:43:16.299Z,3.83
2019-03-27T21:45:46.936Z,5.30
2019-03-27T21:48:22.887Z,3.90
2019-03-27T21:51:07.874Z,2.93
2019-03-27T21:53:51.074Z,2.80
2019-03-27T21:56:22.702Z,4.13
2019-03-27T21:58:54.674Z,2.57
2019-03-27T22:01:29.064Z,3.03
2019-03-27T22:04:00.562Z,3.47
2019-03-27T22:06:34.206Z,4.20
2019-03-27T22:09:08.565Z,4.33
2019-03-27T22:11:41.263Z,2.23
2019-03-27T22:14:12.701Z,3.20
2019-03-27T22:17:00.419Z,2.47
2019-03-27T22:19:30.996Z,3.40
2019-03-27T22:22:01.555Z,2.37
2019-03-27T22:24:31.955Z,3.70
2019-03-27T22:27:02.437Z,3.23
2019-03-27T22:29:33.012Z,3.20
2019-03-27T22:32:03.582Z,2.53
2019-03-27T22:34:34.142Z,2.53
2019-03-27T22:37:04.697Z,5.90
2019-03-27T22:39:35.188Z,5.47
2019-03-27T22:42:05.672Z,2.70
2019-03-27T22:44:36.319Z,1.80
2019-03-27T22:47:06.958Z,2.33
2019-03-27T22:49:37.380Z,3.67
2019-03-27T22:52:07.860Z,3.37
2019-03-27T22:54:38.353Z,2.30
2019-03-27T22:57:08.844Z,2.30
2019-03-27T22:59:39.341Z,5.77
2019-03-27T23:02:09.992Z,5.80
2019-03-27T23:04:40.562Z,5.87
2019-03-27T23:07:11.111Z,6.17
2019-03-27T23:09:41.607Z,4.07
2019-03-27T23:12:12.088Z,3.47
2019-03-27T23:14:42.651Z,6.77
2019-03-27T23:17:13.159Z,6.70
2019-03-27T23:19:43.781Z,6.47
2019-03-27T23:22:14.341Z,3.67
2019-03-27T23:24:45.241Z,5.30
2019-03-27T23:27:15.810Z,3.90
2019-03-27T23:29:46.224Z,5.33
2019-03-27T23:32:16.767Z,2.03
2019-03-27T23:34:47.340Z,2.20
2019-03-27T23:37:17.911Z,2.97
2019-03-27T23:39:48.503Z,2.47
2019-03-27T23:42:19.054Z,5.20
2019-03-27T23:44:49.679Z,3.53
2019-03-27T23:47:21.507Z,8.33
2019-03-27T23:49:52.161Z,8.67
2019-03-27T23:52:23.032Z,9.50
2019-03-27T23:54:53.646Z,8.60
2019-03-27T23:57:25.020Z,7.63
2019-03-27T23:59:55.568Z,10.87
